Time;durP1;ratioP1;P1;durP2;ratioP2;P2;SDS_P1;SDS_P2;PMS_P1;PMS_P2;Temp;Humidity;BMP_temperature;BMP_pressure;BME280_temperature;BME280_humidity;BME280_pressure;Samples;Min_cycle;Max_cycle;Signal;HPM_P1;HPM_P2
2022/12/23 08:10:00;;;;;;;;;;;;;;;9.40;100.00;95586.81;4940831;29;19929;-91
2022/12/23 08:12:29;;;;;;;;;;;;;;;9.29;100.00;95578.47;4939642;29;19925;-92
2022/12/23 08:14:59;;;;;;;;;;;;;;;9.25;100.00;95583.22;4942423;28;20372;-92
2022/12/23 08:17:56;;;;;;;;;;;;;;;9.29;100.00;95596.84;4957121;29;19924;-95
2022/12/23 08:20:38;;;;;;;;;;;;;;;9.20;100.00;95598.66;4959057;28;19914;-92
2022/12/23 08:23:16;;;;;;;;;;;;;;;9.16;100.00;95607.84;4949214;28;19966;-93
2022/12/23 08:25:44;;;;;;;;;;;;;;;9.13;100.00;95616.88;4950143;28;19922;-93
2022/12/23 08:28:12;;;;;;;;;;;;;;;9.09;100.00;95620.81;4943997;28;19920;-93
2022/12/23 08:30:45;;;;;;;;;;;;;;;9.10;100.00;95626.88;4959471;28;20261;-92
2022/12/23 08:33:18;;;;;;;;;;;;;;;9.10;100.00;95624.25;4933545;29;19989;-91
2022/12/23 08:35:45;;;;;;;;;;;;;;;9.11;100.00;95624.06;4949994;28;19957;-92
2022/12/23 08:38:18;;;;;;;;;;;;;;;9.12;100.00;95620.50;4942243;29;19973;-92
2022/12/23 08:40:45;;;;;;;;;;;;;;;9.06;100.00;95621.16;4944948;28;19906;-92
2022/12/23 08:43:15;;;;;;;;;;;;;;;9.10;100.00;95621.63;4970136;28;19923;-92
2022/12/23 08:45:43;;;;;;;;;;;;;;;9.12;100.00;95617.03;4935243;28;19919;-92
2022/12/23 08:48:10;;;;;;;;;;;;;;;9.11;100.00;95618.84;4956564;29;20380;-93
2022/12/23 08:50:37;;;;;;;;;;;;;;;9.13;100.00;95605.56;4924625;28;20376;-92
2022/12/23 08:53:09;;;;;;;;;;;;;;;9.10;100.00;95606.72;4923124;28;19917;-92
2022/12/23 08:55:38;;;;;;;;;;;;;;;9.06;100.00;95621.16;4940543;28;19918;-92
2022/12/23 08:58:10;;;;;;;;;;;;;;;9.06;100.00;95617.72;4922647;29;19929;-92
2022/12/23 09:00:36;;;;;;;;;;;;;;;9.06;100.00;95621.16;4939021;29;19922;-92
2022/12/23 09:03:04;;;;;;;;;;;;;;;9.14;100.00;95615.88;4934969;29;19915;-92
2022/12/23 09:05:30;;;;;;;;;;;;;;;9.11;100.00;95605.72;4912274;29;19977;-93
2022/12/23 09:08:12;;;;;;;;;;;;;;;9.18;100.00;95614.56;4915379;29;19949;-94
2022/12/23 09:14:11;;;;;;;;;;;;;;;9.23;100.00;95616.69;4962431;28;19930;-92
2022/12/23 09:19:32;;;;;;;;;;;;;;;9.39;100.00;95616.69;4938880;29;19914;-92
2022/12/23 09:21:57;;;;;;;;;;;;;;;9.46;100.00;95619.47;4938687;28;20399;-92
2022/12/23 09:24:23;;;;;;;;;;;;;;;9.39;100.00;95627.19;4939648;28;19914;-91
2022/12/23 09:26:48;;;;;;;;;;;;;;;9.44;100.00;95618.78;4923990;28;19933;-92
2022/12/23 09:29:14;;;;;;;;;;;;;;;9.43;100.00;95602.22;4959568;28;19921;-92
2022/12/23 09:31:47;;;;;;;;;;;;;;;9.52;100.00;95616.13;4943030;28;19918;-91
2022/12/23 09:34:12;;;;;;;;;;;;;;;9.60;100.00;95617.94;4944660;28;20016;-92
2022/12/23 09:36:38;;;;;;;;;;;;;;;9.57;100.00;95608.59;4926464;29;20508;-92
2022/12/23 09:39:03;;;;;;;;;;;;;;;9.66;100.00;95612.03;4938943;29;19914;-92
2022/12/23 09:41:29;;;;;;;;;;;;;;;9.62;100.00;95608.06;4946165;28;19964;-92
2022/12/23 09:44:27;;;;;;;;;;;;;;;9.69;100.00;95606.41;4947578;28;20284;-92
2022/12/23 09:46:55;;;;;;;;;;;;;;;9.70;100.00;95605.44;4907323;28;19915;-92
2022/12/23 09:49:22;;;;;;;;;;;;;;;9.71;100.00;95606.25;4931802;29;19961;-91
2022/12/23 09:51:49;;;;;;;;;;;;;;;9.72;100.00;95600.81;4930783;29;19914;-92
2022/12/23 09:54:25;;;;;;;;;;;;;;;9.79;100.00;95600.97;4944856;28;19914;-92
2022/12/23 09:56:59;;;;;;;;;;;;;;;9.76;100.00;95611.81;4941610;29;20364;-92
2022/12/23 09:59:28;;;;;;;;;;;;;;;9.79;100.00;95607.06;4953736;28;19965;-92
2022/12/23 10:01:57;;;;;;;;;;;;;;;9.77;100.00;95608.22;4942310;28;19952;-92
2022/12/23 10:04:38;;;;;;;;;;;;;;;9.84;100.00;95609.97;4940474;29;19914;-92
2022/12/23 10:07:08;;;;;;;;;;;;;;;9.84;100.00;95609.16;4947334;29;19914;-92
2022/12/23 10:09:50;;;;;;;;;;;;;;;9.85;100.00;95605.53;4947153;28;19914;-92
2022/12/23 10:12:23;;;;;;;;;;;;;;;9.88;100.00;95606.03;4942876;28;20012;-92
2022/12/23 10:14:50;;;;;;;;;;;;;;;9.86;100.00;95597.50;4946632;28;20010;-92
2022/12/23 10:17:20;;;;;;;;;;;;;;;9.93;100.00;95596.84;4939539;29;19925;-91
2022/12/23 10:19:49;;;;;;;;;;;;;;;9.89;100.00;95607.69;4925737;28;19965;-92
2022/12/23 10:22:28;;;;;;;;;;;;;;;9.89;100.00;95601.59;4950888;28;19914;-93
2022/12/23 10:24:57;;;;;;;;;;;;;;;9.88;100.00;95602.59;4954913;28;19920;-92
2022/12/23 10:27:27;;;;;;;;;;;;;;;9.80;100.00;95589.50;4972765;28;19903;-91
2022/12/23 10:29:54;;;;;;;;;;;;;;;9.88;100.00;95599.94;4953092;28;19922;-92
2022/12/23 10:32:42;;;;;;;;;;;;;;;9.90;100.00;95593.56;4937757;29;19914;-92
2022/12/23 10:35:32;;;;;;;;;;;;;;;9.86;100.00;95586.19;4973666;28;20400;-92
2022/12/23 10:38:07;;;;;;;;;;;;;;;9.86;100.00;95594.06;4952708;28;19926;-92
2022/12/23 10:40:49;;;;;;;;;;;;;;;9.87;100.00;95590.44;4962588;28;19918;-92
2022/12/23 10:43:14;;;;;;;;;;;;;;;9.79;100.00;95580.81;4942714;28;19914;-92
2022/12/23 10:46:00;;;;;;;;;;;;;;;9.81;100.00;95589.31;4945456;29;19938;-91
2022/12/23 10:48:45;;;;;;;;;;;;;;;9.91;100.00;95578.59;4953275;28;20000;-91
2022/12/23 10:54:43;;;;;;;;;;;;;;;9.99;100.00;95577.75;4967353;28;19992;-92
2022/12/23 10:57:11;;;;;;;;;;;;;;;9.97;100.00;95571.88;4951317;28;19938;-91
2022/12/23 10:59:40;;;;;;;;;;;;;;;9.95;100.00;95573.81;4930255;28;20311;-92
2022/12/23 11:02:12;;;;;;;;;;;;;;;9.98;100.00;95573.50;4959551;29;19929;-92
2022/12/23 11:04:37;;;;;;;;;;;;;;;9.95;100.00;95569.38;4928268;29;19914;-92
2022/12/23 11:07:06;;;;;;;;;;;;;;;9.96;100.00;95563.16;4957102;29;20360;-92
2022/12/23 11:13:01;;;;;;;;;;;;;;;10.13;100.00;95550.75;4959942;29;19921;-91
2022/12/23 11:15:26;;;;;;;;;;;;;;;10.12;100.00;95542.03;4927733;29;19922;-92
2022/12/23 11:18:10;;;;;;;;;;;;;;;10.20;100.00;95546.44;4928387;28;20369;-92
2022/12/23 11:20:36;;;;;;;;;;;;;;;10.22;100.00;95549.69;4946411;29;19915;-92
2022/12/23 11:23:20;;;;;;;;;;;;;;;10.18;100.00;95542.34;4938393;29;20361;-92
2022/12/23 11:25:46;;;;;;;;;;;;;;;10.21;100.00;95544.63;4942971;29;20001;-92
2022/12/23 11:28:18;;;;;;;;;;;;;;;10.23;100.00;95540.00;4943047;29;20450;-92
2022/12/23 11:30:49;;;;;;;;;;;;;;;10.24;100.00;95531.97;4943572;28;19914;-92
2022/12/23 11:33:21;;;;;;;;;;;;;;;10.25;100.00;95522.25;4947556;29;19914;-92
2022/12/23 11:35:58;;;;;;;;;;;;;;;10.23;100.00;95521.59;4942620;29;19914;-92
2022/12/23 11:38:24;;;;;;;;;;;;;;;10.22;100.00;95509.47;4947910;28;19918;-91
2022/12/23 11:40:58;;;;;;;;;;;;;;;10.17;100.00;95499.50;4948096;29;19921;-92
2022/12/23 11:43:25;;;;;;;;;;;;;;;10.17;100.00;95498.69;4921022;29;19961;-92
2022/12/23 11:46:10;;;;;;;;;;;;;;;10.17;100.00;95506.56;4935101;28;19917;-92
2022/12/23 11:48:36;;;;;;;;;;;;;;;10.18;100.00;95500.31;4953551;28;19920;-92
2022/12/23 11:51:08;;;;;;;;;;;;;;;10.22;100.00;95497.16;4934341;29;19996;-92
2022/12/23 11:53:35;;;;;;;;;;;;;;;10.23;100.00;95503.22;4944944;29;19915;-92
2022/12/23 11:56:06;;;;;;;;;;;;;;;10.22;100.00;95498.97;4940966;29;19945;-92
2022/12/23 11:58:52;;;;;;;;;;;;;;;10.20;100.00;95493.09;4940586;28;19918;-91
2022/12/23 12:01:21;;;;;;;;;;;;;;;10.14;100.00;95486.72;4933386;29;20400;-92
2022/12/23 12:04:13;;;;;;;;;;;;;;;10.14;100.00;95476.19;4962080;28;19926;-92
2022/12/23 12:06:44;;;;;;;;;;;;;;;10.18;100.00;95474.03;4946717;28;19961;-92
2022/12/23 12:09:11;;;;;;;;;;;;;;;10.18;100.00;95471.41;4945910;28;19922;-92
2022/12/23 12:11:38;;;;;;;;;;;;;;;10.14;100.00;95478.81;4960229;28;19914;-92
2022/12/23 12:14:06;;;;;;;;;;;;;;;10.18;100.00;95463.53;4936431;29;19914;-92
2022/12/23 12:16:47;;;;;;;;;;;;;;;10.13;100.00;95451.75;4934458;29;19898;-92
2022/12/23 12:19:15;;;;;;;;;;;;;;;10.09;100.00;95460.97;4924812;29;20001;-93
2022/12/23 12:21:43;;;;;;;;;;;;;;;10.08;100.00;95446.19;4931465;28;19917;-92
2022/12/23 12:24:28;;;;;;;;;;;;;;;10.13;100.00;95440.41;4960347;28;19918;-93
2022/12/23 12:26:59;;;;;;;;;;;;;;;10.12;100.00;95436.94;4958552;28;19918;-92
2022/12/23 12:29:52;;;;;;;;;;;;;;;10.15;100.00;95435.78;4925125;29;19915;-92
2022/12/23 12:35:50;;;;;;;;;;;;;;;10.20;100.00;95425.56;4939178;29;19921;-92
2022/12/23 12:38:22;;;;;;;;;;;;;;;10.12;100.00;95418.56;4922220;29;20365;-92
2022/12/23 12:40:50;;;;;;;;;;;;;;;10.14;100.00;95427.09;4942587;29;19914;-92
2022/12/23 12:43:29;;;;;;;;;;;;;;;10.11;100.00;95418.75;4939738;28;19915;-92
2022/12/23 12:49:23;;;;;;;;;;;;;;;10.10;100.00;95410.06;4959901;28;20434;-92
2022/12/23 12:52:16;;;;;;;;;;;;;;;10.09;100.00;95411.06;4942617;28;19914;-92
2022/12/23 12:54:47;;;;;;;;;;;;;;;10.11;100.00;95414.31;4960675;28;19914;-92
2022/12/23 12:57:14;;;;;;;;;;;;;;;10.08;100.00;95401.53;4933515;28;19985;-92
2022/12/23 12:59:41;;;;;;;;;;;;;;;10.11;100.00;95395.09;4959126;28;19925;-92
2022/12/23 13:02:21;;;;;;;;;;;;;;;10.06;100.00;95393.00;4940476;29;19914;-92
2022/12/23 13:08:03;;;;;;;;;;;;;;;10.06;100.00;95384.28;4946002;28;19919;-92
2022/12/23 13:10:31;;;;;;;;;;;;;;;10.12;100.00;95381.78;4935190;29;19915;-94
2022/12/23 13:12:59;;;;;;;;;;;;;;;10.13;100.00;95378.19;4924581;29;19910;-93
2022/12/23 13:15:57;;;;;;;;;;;;;;;10.14;100.00;95382.44;4924979;29;19921;-92
2022/12/23 13:18:33;;;;;;;;;;;;;;;10.16;100.00;95371.75;4901413;29;20013;-93
2022/12/23 13:21:04;;;;;;;;;;;;;;;10.11;100.00;95369.66;4925466;29;19914;-92
2022/12/23 13:23:48;;;;;;;;;;;;;;;10.12;100.00;95376.53;4919061;29;19926;-93
2022/12/23 13:30:01;;;;;;;;;;;;;;;10.24;100.00;95347.22;4971058;28;19948;-91
2022/12/23 13:32:30;;;;;;;;;;;;;;;10.18;100.00;95353.19;4925305;29;19914;-93
2022/12/23 13:35:11;;;;;;;;;;;;;;;10.20;100.00;95345.94;4947317;29;20000;-92
2022/12/23 13:38:07;;;;;;;;;;;;;;;10.25;100.00;95343.56;4925759;29;20399;-92
2022/12/23 13:40:33;;;;;;;;;;;;;;;10.19;100.00;95339.03;4940777;29;19942;-93
2022/12/23 13:43:26;;;;;;;;;;;;;;;10.17;100.00;95343.66;4944947;28;19914;-92
2022/12/23 13:45:53;;;;;;;;;;;;;;;10.18;100.00;95340.03;4943206;29;19914;-93
2022/12/23 13:48:18;;;;;;;;;;;;;;;10.20;100.00;95340.69;4927180;29;19918;-92
2022/12/23 13:51:10;;;;;;;;;;;;;;;10.17;100.00;95341.03;4941214;28;19910;-93
2022/12/23 13:53:35;;;;;;;;;;;;;;;10.16;100.00;95332.34;4941544;28;19952;-93
2022/12/23 13:56:01;;;;;;;;;;;;;;;10.19;100.00;95333.78;4941971;28;19918;-93
2022/12/23 13:58:33;;;;;;;;;;;;;;;10.14;100.00;95332.50;4937052;28;19941;-94
2022/12/23 14:01:07;;;;;;;;;;;;;;;10.25;100.00;95335.69;4949993;28;20439;-95
2022/12/23 14:03:34;;;;;;;;;;;;;;;10.26;100.00;95334.72;4945907;29;20163;-94
2022/12/23 14:06:18;;;;;;;;;;;;;;;10.26;100.00;95334.72;4955617;28;19922;-96
2022/12/23 14:08:46;;;;;;;;;;;;;;;10.19;100.00;95336.41;4946334;29;20025;-95
2022/12/23 14:11:17;;;;;;;;;;;;;;;10.21;100.00;95329.16;4945814;28;19910;-96
2022/12/23 14:13:44;;;;;;;;;;;;;;;10.22;100.00;95315.03;4967107;28;19921;-96
2022/12/23 14:16:19;;;;;;;;;;;;;;;10.21;100.00;95323.91;4965173;28;19922;-96
2022/12/23 14:22:32;;;;;;;;;;;;;;;10.19;100.00;95318.00;4976417;28;20296;-93
2022/12/23 14:25:16;;;;;;;;;;;;;;;10.19;100.00;95321.44;4919404;29;19915;-95
2022/12/23 14:27:41;;;;;;;;;;;;;;;10.23;100.00;95319.28;4949202;28;19923;-93
2022/12/23 14:30:21;;;;;;;;;;;;;;;10.22;100.00;95315.03;4966804;28;19913;-90
2022/12/23 14:32:50;;;;;;;;;;;;;;;10.22;100.00;95312.41;4958098;28;20013;-94
2022/12/23 14:35:22;;;;;;;;;;;;;;;10.20;100.00;95319.66;4929489;28;19922;-90
2022/12/23 14:38:04;;;;;;;;;;;;;;;10.14;100.00;95316.75;4946687;28;19949;-91
2022/12/23 14:41:17;;;;;;;;;;;;;;;10.18;100.00;95305.88;4949179;28;20061;-94
2022/12/23 14:46:44;;;;;;;;;;;;;;;10.11;100.00;95309.22;4913701;29;19919;-91
2022/12/23 15:03:13;;;;;;;;;;;;;;;10.09;100.00;95294.63;4914429;29;19942;-93
2022/12/23 15:06:03;;;;;;;;;;;;;;;10.04;100.00;95303.06;4926311;29;19922;-94
2022/12/23 15:16:04;;;;;;;;;;;;;;;;;;;;;
2022/12/23 15:19:15;;;;;;;;;;;;;;;10.00;100.00;95293.09;4857876;29;19938;-91
2022/12/23 15:21:44;;;;;;;;;;;;;;;10.04;100.00;95291.72;4855231;29;20079;-90
2022/12/23 15:24:15;;;;;;;;;;;;;;;10.03;100.00;95296.19;4857662;29;19912;-94
2022/12/23 15:26:49;;;;;;;;;;;;;;;10.08;100.00;95300.88;4858431;29;19995;-91
2022/12/23 15:32:47;;;;;;;;;;;;;;;10.07;100.00;95300.06;4946447;29;19962;-93
2022/12/23 15:35:35;;;;;;;;;;;;;;;10.15;100.00;95296.53;4928353;29;19970;-90
2022/12/23 15:38:07;;;;;;;;;;;;;;;10.13;100.00;95293.28;4921381;29;19922;-95
2022/12/23 15:40:37;;;;;;;;;;;;;;;10.15;100.00;95292.09;4932497;29;19961;-91
2022/12/23 15:43:25;;;;;;;;;;;;;;;10.12;100.00;95292.44;4917083;29;19966;-91
2022/12/23 15:45:51;;;;;;;;;;;;;;;10.19;100.00;95302.25;4921696;29;20300;-93
2022/12/23 15:48:27;;;;;;;;;;;;;;;10.14;100.00;95308.88;4909984;29;20056;-91
2022/12/23 15:51:10;;;;;;;;;;;;;;;10.18;100.00;95319.03;4909195;29;19922;-90
2022/12/23 15:53:37;;;;;;;;;;;;;;;10.17;100.00;95309.50;4915594;29;19970;-92
2022/12/23 15:56:24;;;;;;;;;;;;;;;10.23;100.00;95314.03;4896926;29;19918;-94
2022/12/23 15:59:00;;;;;;;;;;;;;;;10.19;100.00;95312.75;4934880;29;19945;-92
2022/12/23 16:01:26;;;;;;;;;;;;;;;10.23;100.00;95308.78;4904796;29;19924;-93
2022/12/23 16:03:59;;;;;;;;;;;;;;;10.24;100.00;95315.69;4921859;29;20597;-92
2022/12/23 16:06:30;;;;;;;;;;;;;;;10.24;100.00;95326.19;4919212;29;19977;-92
2022/12/23 16:08:59;;;;;;;;;;;;;;;10.25;100.00;95323.38;4934966;29;20416;-92
2022/12/23 16:11:41;;;;;;;;;;;;;;;10.24;100.00;95318.31;4940225;29;19910;-91
2022/12/23 16:17:22;;;;;;;;;;;;;;;10.30;100.00;95315.00;4936802;28;19915;-90
2022/12/23 16:19:52;;;;;;;;;;;;;;;10.31;100.00;95311.38;4912735;29;19919;-91
2022/12/23 16:22:24;;;;;;;;;;;;;;;10.36;100.00;95306.38;4930570;29;19923;-91
2022/12/23 16:24:50;;;;;;;;;;;;;;;10.38;100.00;95315.72;4935891;29;19914;-91
2022/12/23 16:27:24;;;;;;;;;;;;;;;10.41;100.00;95301.41;4916348;29;19914;-91
2022/12/23 16:29:51;;;;;;;;;;;;;;;10.41;100.00;95305.84;4900194;29;19914;-91
2022/12/23 16:32:17;;;;;;;;;;;;;;;10.46;100.00;95306.09;4914327;29;20003;-91
2022/12/23 16:34:47;;;;;;;;;;;;;;;10.51;100.00;95303.75;4929259;29;19960;-91
2022/12/23 16:37:12;;;;;;;;;;;;;;;10.49;100.00;95306.56;4904795;29;19915;-91
2022/12/23 16:39:39;;;;;;;;;;;;;;;10.52;100.00;95308.81;4920830;29;19925;-92
2022/12/23 16:42:11;;;;;;;;;;;;;;;10.57;100.00;95300.41;4906792;29;19915;-92
2022/12/23 16:44:39;;;;;;;;;;;;;;;10.51;100.00;95312.47;4936246;29;19922;-91
2022/12/23 16:47:06;;;;;;;;;;;;;;;10.59;100.00;95307.09;4947955;29;19918;-91
2022/12/23 16:49:32;;;;;;;;;;;;;;;10.60;100.00;95311.38;4908823;29;20001;-90
2022/12/23 16:51:58;;;;;;;;;;;;;;;10.62;100.00;95298.84;4927107;29;19919;-91
2022/12/23 16:54:23;;;;;;;;;;;;;;;10.62;100.00;95288.34;4938264;29;19919;-91
2022/12/23 16:56:52;;;;;;;;;;;;;;;10.64;100.00;95305.75;4940885;29;19918;-90
2022/12/23 16:59:19;;;;;;;;;;;;;;;10.64;100.00;95313.66;4935426;29;19919;-91
2022/12/23 17:01:46;;;;;;;;;;;;;;;10.60;100.00;95298.22;4925541;29;19958;-91
2022/12/23 17:04:12;;;;;;;;;;;;;;;10.61;100.00;95305.13;4915596;29;19929;-91
2022/12/23 17:06:40;;;;;;;;;;;;;;;10.57;100.00;95313.56;4912033;29;19923;-91
2022/12/23 17:09:06;;;;;;;;;;;;;;;10.61;100.00;95318.25;4937985;29;19914;-91
2022/12/23 17:11:49;;;;;;;;;;;;;;;10.57;100.00;95311.75;4908727;29;20423;-91
2022/12/23 17:17:55;;;;;;;;;;;;;;;10.55;100.00;95318.97;4894175;29;19995;-91
2022/12/23 17:20:43;;;;;;;;;;;;;;;10.58;100.00;95318.63;4913538;29;19929;-91
2022/12/23 17:23:20;;;;;;;;;;;;;;;10.57;100.00;95329.34;4913870;29;19914;-90
2022/12/23 17:25:45;;;;;;;;;;;;;;;10.56;100.00;95317.16;4922481;29;19921;-90
2022/12/23 17:28:14;;;;;;;;;;;;;;;10.52;100.00;95311.44;4902773;29;19927;-90
2022/12/23 17:30:40;;;;;;;;;;;;;;;10.49;100.00;95308.38;4918652;29;19921;-90
2022/12/23 17:33:13;;;;;;;;;;;;;;;10.50;100.00;95307.41;4903394;29;20405;-91
2022/12/23 17:35:40;;;;;;;;;;;;;;;10.47;100.00;95311.19;4921220;29;20400;-90
2022/12/23 17:38:12;;;;;;;;;;;;;;;10.42;100.00;95320.59;4937056;29;19914;-91
2022/12/23 17:40:53;;;;;;;;;;;;;;;10.56;100.00;95315.38;4911424;29;19922;-91
2022/12/23 17:43:23;;;;;;;;;;;;;;;10.60;100.00;95327.16;4901166;29;19919;-91
2022/12/23 17:45:58;;;;;;;;;;;;;;;10.47;100.00;95316.44;4918461;29;19915;-91
2022/12/23 17:48:24;;;;;;;;;;;;;;;10.44;100.00;95322.06;4925184;29;19965;-90
2022/12/23 17:51:11;;;;;;;;;;;;;;;10.41;100.00;95317.16;4905910;29;19949;-91
2022/12/23 17:53:38;;;;;;;;;;;;;;;10.41;100.00;95314.53;4932724;29;19937;-91
2022/12/23 17:56:14;;;;;;;;;;;;;;;10.45;100.00;95318.44;4939945;29;20009;-90
2022/12/23 17:58:50;;;;;;;;;;;;;;;10.48;100.00;95318.06;4930465;29;19918;-91
2022/12/23 18:01:18;;;;;;;;;;;;;;;10.49;100.00;95324.16;4947456;28;19911;-91
2022/12/23 18:03:45;;;;;;;;;;;;;;;10.50;100.00;95321.34;4918707;29;19942;-91
2022/12/23 18:06:15;;;;;;;;;;;;;;;10.49;100.00;95330.22;4919883;29;19925;-91
2022/12/23 18:08:42;;;;;;;;;;;;;;;10.47;100.00;95337.47;4930167;29;19975;-90
2022/12/23 18:11:15;;;;;;;;;;;;;;;10.50;100.00;95352.91;4923100;28;19950;-89
2022/12/23 18:13:41;;;;;;;;;;;;;;;10.49;100.00;95345.97;4917918;29;19919;-89
2022/12/23 18:16:11;;;;;;;;;;;;;;;10.52;100.00;95344.81;4923829;29;20048;-89
2022/12/23 18:18:37;;;;;;;;;;;;;;;10.48;100.00;95344.38;4932645;29;20392;-89
2022/12/23 18:21:04;;;;;;;;;;;;;;;10.47;100.00;95353.25;4904273;29;20009;-89
2022/12/23 18:23:32;;;;;;;;;;;;;;;10.46;100.00;95363.94;4928746;29;20277;-90
2022/12/23 18:26:23;;;;;;;;;;;;;;;10.46;100.00;95366.56;4916606;29;20028;-89
2022/12/23 18:28:50;;;;;;;;;;;;;;;10.46;100.00;95366.56;4920585;29;19938;-88
2022/12/23 18:31:20;;;;;;;;;;;;;;;10.38;100.00;95355.13;4935286;29;19914;-88
2022/12/23 18:33:46;;;;;;;;;;;;;;;10.49;100.00;95345.19;4908311;29;19914;-89
2022/12/23 18:36:19;;;;;;;;;;;;;;;10.50;100.00;95357.34;4926685;29;20013;-89
2022/12/23 18:38:45;;;;;;;;;;;;;;;10.47;100.00;95326.97;4929691;29;19915;-90
2022/12/23 18:41:11;;;;;;;;;;;;;;;10.52;100.00;95356.16;4921456;29;19921;-90
2022/12/23 18:43:37;;;;;;;;;;;;;;;10.50;100.00;95342.38;4939160;29;19962;-90
2022/12/23 18:46:06;;;;;;;;;;;;;;;10.50;100.00;95347.63;4906058;29;19922;-91
2022/12/23 18:48:57;;;;;;;;;;;;;;;10.44;100.00;95340.47;4899761;29;19927;-90
2022/12/23 18:51:23;;;;;;;;;;;;;;;10.27;100.00;95342.44;4897668;29;19919;-90
2022/12/23 18:53:51;;;;;;;;;;;;;;;10.29;100.00;95344.88;4918238;29;19915;-90
2022/12/23 18:56:19;;;;;;;;;;;;;;;10.29;100.00;95345.69;4914725;29;19919;-88
2022/12/23 18:59:13;;;;;;;;;;;;;;;10.27;100.00;95360.03;4928657;29;20365;-90
2022/12/23 19:01:39;;;;;;;;;;;;;;;10.21;100.00;95368.59;4903885;29;19919;-90
2022/12/23 19:04:05;;;;;;;;;;;;;;;10.16;100.00;95377.00;4904358;29;19918;-91
2022/12/23 19:06:31;;;;;;;;;;;;;;;10.15;100.00;95391.13;4912662;29;19922;-91
2022/12/23 19:08:57;;;;;;;;;;;;;;;10.11;100.00;95390.66;4919605;29;19919;-91
2022/12/23 19:11:26;;;;;;;;;;;;;;;10.12;100.00;95401.97;4934921;29;19925;-92
2022/12/23 19:13:51;;;;;;;;;;;;;;;10.09;100.00;95397.91;4916232;29;19941;-91
2022/12/23 19:16:18;;;;;;;;;;;;;;;10.08;100.00;95398.06;4916791;29;20373;-92
2022/12/23 19:18:44;;;;;;;;;;;;;;;10.06;100.00;95403.53;4924038;29;19915;-92
2022/12/23 19:21:15;;;;;;;;;;;;;;;10.02;100.00;95396.97;4902381;29;20054;-91
2022/12/23 19:23:40;;;;;;;;;;;;;;;9.97;100.00;95404.56;4923735;29;20059;-92
2022/12/23 19:26:14;;;;;;;;;;;;;;;9.99;100.00;95418.31;4939968;29;20405;-91
2022/12/23 19:28:40;;;;;;;;;;;;;;;10.00;100.00;95422.59;4932029;29;19930;-92
2022/12/23 19:31:10;;;;;;;;;;;;;;;9.98;100.00;95415.88;4915905;29;19910;-92
2022/12/23 19:33:39;;;;;;;;;;;;;;;10.03;100.00;95416.19;4917027;29;19925;-92
2022/12/23 19:36:09;;;;;;;;;;;;;;;10.08;100.00;95426.97;4935112;29;19964;-94
2022/12/23 19:38:34;;;;;;;;;;;;;;;10.02;100.00;95423.22;4920638;29;20288;-92
2022/12/23 19:41:01;;;;;;;;;;;;;;;10.04;100.00;95434.41;4927800;29;20028;-93
2022/12/23 19:43:26;;;;;;;;;;;;;;;10.04;100.00;95430.94;4918430;29;19917;-93
2022/12/23 19:45:59;;;;;;;;;;;;;;;10.09;100.00;95439.09;4915841;28;19989;-93
2022/12/23 19:48:25;;;;;;;;;;;;;;;10.11;100.00;95443.19;4924543;28;19957;-93
2022/12/23 19:50:58;;;;;;;;;;;;;;;10.18;100.00;95447.75;4911176;29;19915;-92
2022/12/23 19:53:24;;;;;;;;;;;;;;;10.22;100.00;95441.16;4932553;28;19902;-92
2022/12/23 19:55:57;;;;;;;;;;;;;;;10.27;100.00;95444.13;4928944;28;19923;-93
2022/12/23 19:58:23;;;;;;;;;;;;;;;10.27;100.00;95441.50;4931247;29;19914;-93
2022/12/23 20:00:48;;;;;;;;;;;;;;;10.25;100.00;95451.31;4914108;29;19914;-93
2022/12/23 20:03:14;;;;;;;;;;;;;;;10.29;100.00;95442.91;4932589;29;19914;-93
2022/12/23 20:05:40;;;;;;;;;;;;;;;10.26;100.00;95452.97;4914253;29;20603;-93
2022/12/23 20:08:16;;;;;;;;;;;;;;;10.26;100.00;95463.47;4922241;29;19919;-92
2022/12/23 20:10:47;;;;;;;;;;;;;;;10.17;100.00;95472.41;4915364;29;20004;-92
2022/12/23 20:13:12;;;;;;;;;;;;;;;10.10;100.00;95483.63;4912249;29;19958;-92
2022/12/23 20:15:38;;;;;;;;;;;;;;;10.02;100.00;95467.88;4921486;29;19921;-91
2022/12/23 20:18:04;;;;;;;;;;;;;;;10.02;100.00;95464.44;4944947;29;19918;-91
2022/12/23 20:20:30;;;;;;;;;;;;;;;10.03;100.00;95464.28;4921569;29;19914;-92
2022/12/23 20:23:14;;;;;;;;;;;;;;;10.02;100.00;95457.38;4940229;29;19915;-92
2022/12/23 20:25:40;;;;;;;;;;;;;;;10.00;100.00;95455.94;4914701;29;19918;-92
2022/12/23 20:28:05;;;;;;;;;;;;;;;10.02;100.00;95449.50;4934200;29;19937;-92
2022/12/23 20:30:31;;;;;;;;;;;;;;;10.03;100.00;95453.78;4925292;29;19919;-91
2022/12/23 20:32:57;;;;;;;;;;;;;;;10.05;100.00;95454.41;4907680;29;19914;-90
2022/12/23 20:35:23;;;;;;;;;;;;;;;10.06;100.00;95461.31;4925116;29;19914;-92
2022/12/23 20:37:49;;;;;;;;;;;;;;;10.08;100.00;95463.75;4906735;29;19954;-92
2022/12/23 20:40:16;;;;;;;;;;;;;;;10.05;100.00;95454.41;4923455;29;20044;-92
2022/12/23 20:42:47;;;;;;;;;;;;;;;10.09;100.00;95453.09;4923225;29;19919;-93
2022/12/23 20:45:12;;;;;;;;;;;;;;;10.14;100.00;95450.75;4940386;29;19914;-93
2022/12/23 20:47:43;;;;;;;;;;;;;;;10.11;100.00;95463.41;4913597;29;19925;-92
2022/12/23 20:50:08;;;;;;;;;;;;;;;10.15;100.00;95465.50;4910478;29;19914;-92
2022/12/23 20:52:34;;;;;;;;;;;;;;;10.12;100.00;95478.16;4927763;29;19918;-92
2022/12/23 20:55:06;;;;;;;;;;;;;;;10.13;100.00;95487.72;4934245;29;19969;-92
2022/12/23 20:57:34;;;;;;;;;;;;;;;10.15;100.00;95512.78;4948268;29;19929;-92
2022/12/23 21:00:03;;;;;;;;;;;;;;;10.13;100.00;95520.06;4920698;29;19963;-92
2022/12/23 21:05:29;;;;;;;;;;;;;;;10.17;100.00;95527.59;4935464;29;19961;-94
2022/12/23 21:07:55;;;;;;;;;;;;;;;10.13;100.00;95519.22;4916143;29;19978;-93
2022/12/23 21:10:26;;;;;;;;;;;;;;;10.12;100.00;95531.53;4923343;29;19921;-93
2022/12/23 21:12:52;;;;;;;;;;;;;;;10.11;100.00;95532.53;4928674;29;19918;-92
2022/12/23 21:15:21;;;;;;;;;;;;;;;10.10;100.00;95530.91;4909602;29;19915;-93
2022/12/23 21:17:47;;;;;;;;;;;;;;;10.08;100.00;95538.13;4922848;29;20372;-93
2022/12/23 21:20:13;;;;;;;;;;;;;;;10.00;100.00;95535.56;4909126;29;19914;-94
2022/12/23 21:22:39;;;;;;;;;;;;;;;10.02;100.00;95543.25;4913279;29;19959;-94
2022/12/23 21:25:15;;;;;;;;;;;;;;;10.03;100.00;95556.22;4945553;29;20078;-93
2022/12/23 21:27:42;;;;;;;;;;;;;;;9.99;100.00;95568.03;4935956;29;19925;-93
2022/12/23 21:30:12;;;;;;;;;;;;;;;9.98;100.00;95566.41;4933443;29;19910;-93
2022/12/23 21:32:37;;;;;;;;;;;;;;;9.99;100.00;95562.78;4930906;28;19935;-93
2022/12/23 21:35:04;;;;;;;;;;;;;;;10.06;100.00;95569.03;4936181;29;19926;-93
2022/12/23 21:37:30;;;;;;;;;;;;;;;10.06;100.00;95571.66;4923955;29;19919;-93
2022/12/23 21:40:03;;;;;;;;;;;;;;;10.05;100.00;95570.00;4918050;29;19915;-93
2022/12/23 21:42:29;;;;;;;;;;;;;;;10.02;100.00;95580.03;4920448;28;19911;-93
2022/12/23 21:44:55;;;;;;;;;;;;;;;9.94;100.00;95594.03;4937146;29;20362;-94
2022/12/23 21:47:20;;;;;;;;;;;;;;;9.84;100.00;95581.09;4912054;29;20009;-93
2022/12/23 21:49:58;;;;;;;;;;;;;;;9.80;100.00;95576.38;4905558;29;20586;-94
2022/12/23 21:52:23;;;;;;;;;;;;;;;9.87;100.00;95575.50;4921093;29;19914;-93
2022/12/23 21:54:58;;;;;;;;;;;;;;;9.77;100.00;95576.69;4925380;29;20413;-93
2022/12/23 21:57:23;;;;;;;;;;;;;;;9.73;100.00;95573.59;4928841;29;19939;-94
2022/12/23 21:59:58;;;;;;;;;;;;;;;9.67;100.00;95580.34;4943935;29;19911;-94
2022/12/23 22:02:23;;;;;;;;;;;;;;;9.62;100.00;95564.28;4919716;29;19915;-93
2022/12/23 22:04:52;;;;;;;;;;;;;;;9.58;100.00;95564.78;4938899;29;19951;-94
2022/12/23 22:07:17;;;;;;;;;;;;;;;9.55;100.00;95563.31;4927392;29;19919;-94
2022/12/23 22:09:43;;;;;;;;;;;;;;;9.51;100.00;95574.31;4953270;29;19914;-94
2022/12/23 22:12:08;;;;;;;;;;;;;;;9.50;100.00;95580.56;4935283;29;19910;-95
2022/12/23 22:14:34;;;;;;;;;;;;;;;9.50;100.00;95581.38;4920182;29;19918;-95
2022/12/23 22:16:59;;;;;;;;;;;;;;;9.43;100.00;95591.72;4922822;29;19923;-94
2022/12/23 22:22:26;;;;;;;;;;;;;;;9.37;100.00;95602.91;5362991;22;19942;-93
